Luseland, Canada
Current Conditions -  °F | °C
As of 9:00 PM on Monday 22 Dec 2014 (Local Time) from CYKY Reporting Station
Overcast Overcast  
Wind Chill: 20°   Ceiling: 1000
Heat Index: 28°   Visibility: 15mi
Dew Point: 27°   Wind: 9mph
Humidity: 93%   Direction: 300°WNW
Pressure: 30"   Gusts: 17mph
Location:  52.08°N, 109.43°W
Report Text: CYKY 230300Z 30008G15KT 15SM OVC010 M02/M03 A3000 RMK SC8 SLP194
Loading
Personal Weather Stations






























Interactive Weather Map New forecast layout! Learn more

10-Day Weather Forecast

Advertisements
Track Severe Weather on mobile